createdAt,value
2023-01-26T00:01:27.687Z,1.46
2023-01-26T00:03:56.960Z,1.43
2023-01-26T00:06:25.124Z,1.45
2023-01-26T00:08:56.941Z,1.46
2023-01-26T00:11:27.100Z,1.40
2023-01-26T00:13:55.763Z,1.45
2023-01-26T00:16:24.387Z,1.49
2023-01-26T00:18:52.154Z,1.47
2023-01-26T00:21:25.352Z,1.52
2023-01-26T00:23:54.374Z,1.47
2023-01-26T00:26:24.849Z,1.42
2023-01-26T00:28:55.607Z,1.38
2023-01-26T00:31:26.111Z,1.51
2023-01-26T00:33:55.755Z,1.37
2023-01-26T00:36:25.247Z,1.48
2023-01-26T00:38:53.003Z,1.53
2023-01-26T00:41:38.329Z,1.47
2023-01-26T00:44:06.149Z,1.43
2023-01-26T00:46:34.066Z,1.58
2023-01-26T00:49:02.023Z,1.56
2023-01-26T00:51:31.130Z,1.51
2023-01-26T00:53:58.877Z,1.41
2023-01-26T00:56:28.048Z,1.43
2023-01-26T00:58:55.909Z,1.53
2023-01-26T01:01:23.645Z,1.50
2023-01-26T01:03:52.212Z,1.51
2023-01-26T01:06:20.020Z,1.55
2023-01-26T01:08:49.613Z,1.38
2023-01-26T01:11:17.510Z,1.45
2023-01-26T01:13:45.316Z,1.34
2023-01-26T01:16:18.500Z,1.55
2023-01-26T01:18:46.673Z,1.66
2023-01-26T01:21:17.033Z,1.36
2023-01-26T01:23:45.592Z,1.35
2023-01-26T01:26:15.649Z,1.35
2023-01-26T01:28:45.530Z,1.40
2023-01-26T01:31:15.951Z,1.40
2023-01-26T01:33:44.422Z,1.51
2023-01-26T01:36:14.509Z,1.21
2023-01-26T01:38:42.832Z,1.20
2023-01-26T01:41:11.599Z,1.11
2023-01-26T01:43:41.234Z,1.31
2023-01-26T01:46:16.203Z,1.34
2023-01-26T01:48:51.523Z,1.38
2023-01-26T01:51:27.979Z,1.45
2023-01-26T01:53:59.419Z,1.47
2023-01-26T01:56:30.525Z,1.41
2023-01-26T01:59:02.754Z,1.42
2023-01-26T02:01:32.138Z,1.38
2023-01-26T02:04:05.734Z,1.59
2023-01-26T02:06:38.982Z,1.57
2023-01-26T02:09:07.801Z,1.55
2023-01-26T02:11:40.584Z,1.44
2023-01-26T02:14:12.645Z,1.38
2023-01-26T02:16:40.687Z,1.35
2023-01-26T02:19:18.807Z,1.07
2023-01-26T02:21:50.756Z,1.10
2023-01-26T02:24:21.510Z,1.09
2023-01-26T02:26:50.817Z,1.13
2023-01-26T02:29:18.645Z,1.23
2023-01-26T02:31:47.229Z,1.15
2023-01-26T02:34:15.164Z,1.03
2023-01-26T02:36:42.963Z,1.11
2023-01-26T02:39:23.233Z,1.29
2023-01-26T02:42:10.874Z,1.13
2023-01-26T02:44:40.491Z,1.16
2023-01-26T02:47:13.412Z,1.16
2023-01-26T02:49:51.156Z,1.20
2023-01-26T02:52:20.732Z,1.08
2023-01-26T02:55:11.495Z,1.10
2023-01-26T02:57:41.260Z,1.17
2023-01-26T03:00:12.773Z,1.08
2023-01-26T03:02:41.819Z,1.05
2023-01-26T03:05:09.992Z,1.14
2023-01-26T03:07:37.966Z,1.15
2023-01-26T03:10:07.157Z,1.00
2023-01-26T03:12:35.339Z,1.10
2023-01-26T03:15:22.951Z,1.21
2023-01-26T03:17:50.685Z,1.27
2023-01-26T03:20:36.601Z,1.19
2023-01-26T03:23:21.854Z,1.23
2023-01-26T03:26:07.195Z,1.29
2023-01-26T03:28:35.050Z,1.17
2023-01-26T03:31:07.964Z,1.24
2023-01-26T03:33:35.713Z,1.14
2023-01-26T03:36:03.454Z,1.12
2023-01-26T03:38:31.221Z,1.42
2023-01-26T03:41:16.768Z,1.55
2023-01-26T03:44:02.242Z,1.26
2023-01-26T03:46:49.021Z,1.12
2023-01-26T03:49:34.164Z,1.12
2023-01-26T03:52:19.393Z,1.15
2023-01-26T03:55:04.961Z,1.15
2023-01-26T03:57:32.709Z,1.21
2023-01-26T04:00:00.499Z,1.16
2023-01-26T04:02:47.143Z,1.14
2023-01-26T04:05:32.375Z,0.97
2023-01-26T04:08:20.789Z,0.91
2023-01-26T04:10:48.689Z,0.87
2023-01-26T04:13:33.809Z,0.87
2023-01-26T04:16:19.214Z,0.92
2023-01-26T04:19:05.935Z,1.07
2023-01-26T04:21:34.877Z,1.04
2023-01-26T04:24:09.479Z,0.99
2023-01-26T04:26:38.158Z,0.86
2023-01-26T04:29:08.107Z,0.95
2023-01-26T04:31:36.205Z,1.10
2023-01-26T04:34:06.865Z,1.18
2023-01-26T04:36:35.419Z,1.10
2023-01-26T04:39:03.765Z,1.15
2023-01-26T04:41:32.207Z,0.98
2023-01-26T04:44:00.158Z,0.98
2023-01-26T04:46:28.377Z,0.91
2023-01-26T04:48:56.069Z,1.00
2023-01-26T04:51:25.603Z,1.06
2023-01-26T04:53:53.369Z,1.02
2023-01-26T04:56:24.421Z,1.06
2023-01-26T04:58:52.834Z,1.03
2023-01-26T05:01:21.536Z,0.89
2023-01-26T05:03:49.754Z,0.86
2023-01-26T05:06:17.977Z,1.04
2023-01-26T05:08:47.292Z,1.00
2023-01-26T05:11:15.014Z,1.07
2023-01-26T05:13:42.758Z,0.96
2023-01-26T05:16:13.976Z,1.19
2023-01-26T05:18:42.077Z,1.25
2023-01-26T05:21:10.881Z,1.17
2023-01-26T05:23:39.560Z,1.15
2023-01-26T05:26:08.907Z,1.27
2023-01-26T05:28:36.839Z,1.10
2023-01-26T05:31:04.955Z,1.05
2023-01-26T05:33:32.772Z,1.11
2023-01-26T05:36:05.641Z,1.08
2023-01-26T05:38:33.426Z,1.05
2023-01-26T05:41:01.256Z,1.08
2023-01-26T05:43:30.758Z,1.20
2023-01-26T05:45:58.530Z,1.18
2023-01-26T05:48:26.258Z,1.20
2023-01-26T05:50:57.006Z,1.31
2023-01-26T05:53:24.803Z,1.23
2023-01-26T05:55:52.570Z,1.20
2023-01-26T05:58:20.608Z,1.27
2023-01-26T06:00:49.830Z,1.21
2023-01-26T06:03:17.527Z,1.18
2023-01-26T06:05:45.300Z,1.24
2023-01-26T06:08:13.681Z,1.13
2023-01-26T06:10:41.468Z,0.98
2023-01-26T06:13:09.208Z,0.90
2023-01-26T06:15:36.980Z,0.89
2023-01-26T06:18:06.276Z,0.91
2023-01-26T06:20:34.363Z,1.07
2023-01-26T06:23:02.575Z,0.98
2023-01-26T06:25:30.369Z,1.03
2023-01-26T06:28:01.455Z,1.13
2023-01-26T06:30:29.412Z,1.07
2023-01-26T06:32:59.911Z,1.13
2023-01-26T06:35:29.688Z,1.13
2023-01-26T06:37:57.500Z,1.10
2023-01-26T06:40:25.455Z,0.92
2023-01-26T06:42:53.280Z,1.20
2023-01-26T06:45:21.234Z,1.25
2023-01-26T06:47:49.422Z,1.24
2023-01-26T06:50:19.829Z,1.17
2023-01-26T06:52:52.687Z,1.29
2023-01-26T06:55:24.919Z,1.10
2023-01-26T06:57:52.678Z,1.19
2023-01-26T07:00:21.626Z,1.09
2023-01-26T07:02:49.503Z,1.14
2023-01-26T07:05:17.423Z,1.12
2023-01-26T07:07:45.281Z,1.10
2023-01-26T07:10:14.902Z,1.17
2023-01-26T07:12:43.736Z,1.17
2023-01-26T07:15:12.614Z,1.24
2023-01-26T07:17:40.637Z,1.26
2023-01-26T07:20:09.835Z,1.03
2023-01-26T07:22:37.775Z,1.23
2023-01-26T07:25:06.069Z,1.28
2023-01-26T07:27:35.187Z,1.23
2023-01-26T07:30:03.197Z,1.25
2023-01-26T07:32:30.926Z,1.21
2023-01-26T07:34:58.639Z,1.23
2023-01-26T07:37:28.833Z,1.13
2023-01-26T07:39:56.918Z,1.17
2023-01-26T07:42:26.157Z,1.12
2023-01-26T07:44:55.712Z,1.07
2023-01-26T07:47:23.470Z,1.30
2023-01-26T07:49:51.531Z,1.24
2023-01-26T07:52:19.298Z,1.18
2023-01-26T07:54:47.150Z,1.11
2023-01-26T07:57:14.925Z,1.16
2023-01-26T07:59:42.726Z,1.11
2023-01-26T08:02:12.442Z,1.19
2023-01-26T08:04:40.175Z,1.27
2023-01-26T08:07:07.934Z,1.30
2023-01-26T08:09:36.102Z,1.30
2023-01-26T08:12:03.982Z,1.20
2023-01-26T08:14:45.304Z,1.31
2023-01-26T08:17:17.456Z,1.87
2023-01-26T08:19:45.621Z,1.77
2023-01-26T08:22:13.436Z,1.29
2023-01-26T08:24:41.241Z,1.34
2023-01-26T08:27:08.975Z,1.36
2023-01-26T08:29:37.111Z,1.35
2023-01-26T08:32:05.167Z,1.31
2023-01-26T08:34:34.311Z,1.31
2023-01-26T08:37:02.134Z,1.26
2023-01-26T08:39:29.909Z,1.35
2023-01-26T08:41:57.675Z,1.35
2023-01-26T08:44:25.542Z,1.47
2023-01-26T08:46:53.659Z,1.38
2023-01-26T08:49:21.424Z,1.16
2023-01-26T08:51:50.568Z,1.05
2023-01-26T08:54:18.422Z,1.19
2023-01-26T08:56:46.238Z,1.29
2023-01-26T08:59:13.962Z,1.17
2023-01-26T09:01:41.793Z,1.08
2023-01-26T09:04:09.602Z,0.98
2023-01-26T09:06:37.392Z,1.06
2023-01-26T09:09:09.905Z,1.17
2023-01-26T09:11:37.681Z,1.39
2023-01-26T09:14:05.475Z,1.23
2023-01-26T09:16:33.379Z,1.32
2023-01-26T09:19:01.319Z,1.10
2023-01-26T09:21:29.124Z,1.38
2023-01-26T09:23:57.628Z,1.54
2023-01-26T09:26:26.857Z,1.65
2023-01-26T09:28:54.660Z,1.45
2023-01-26T09:31:22.684Z,1.61
2023-01-26T09:33:50.980Z,1.53
2023-01-26T09:36:19.000Z,1.49
2023-01-26T09:38:47.054Z,1.57
2023-01-26T09:41:30.644Z,1.56
2023-01-26T09:44:06.056Z,1.48
2023-01-26T09:46:46.746Z,1.33
2023-01-26T09:49:20.439Z,1.53
2023-01-26T09:51:57.587Z,1.57
2023-01-26T09:54:32.108Z,1.64
2023-01-26T09:57:02.269Z,1.48
2023-01-26T09:59:36.860Z,1.17
2023-01-26T10:02:19.264Z,1.43
2023-01-26T10:04:53.023Z,1.28
2023-01-26T10:07:21.052Z,1.52
2023-01-26T10:09:51.710Z,1.34
2023-01-26T10:12:23.436Z,1.24
2023-01-26T10:14:57.632Z,1.48
2023-01-26T10:17:32.275Z,1.57
2023-01-26T10:20:06.246Z,1.65
2023-01-26T10:22:44.573Z,1.43
2023-01-26T10:25:17.808Z,1.39
2023-01-26T10:27:47.000Z,1.39
2023-01-26T10:30:19.927Z,1.59
2023-01-26T10:32:52.106Z,1.54
2023-01-26T10:35:20.911Z,1.59
2023-01-26T10:37:49.124Z,1.45
2023-01-26T10:40:18.824Z,1.53
2023-01-26T10:42:56.761Z,1.46
2023-01-26T10:45:28.964Z,1.58
2023-01-26T10:48:19.626Z,1.45
2023-01-26T10:50:48.045Z,1.42
2023-01-26T10:53:23.860Z,1.28
2023-01-26T10:56:02.832Z,1.58
2023-01-26T10:58:45.734Z,1.75
2023-01-26T11:01:16.556Z,1.86
2023-01-26T11:04:06.923Z,1.76
2023-01-26T11:06:35.450Z,1.60
2023-01-26T11:09:19.045Z,1.70
2023-01-26T11:11:57.740Z,1.61
2023-01-26T11:14:25.749Z,1.47
2023-01-26T11:17:01.846Z,1.54
2023-01-26T11:19:53.884Z,1.54
2023-01-26T11:22:28.404Z,1.72
2023-01-26T11:25:07.254Z,1.86
2023-01-26T11:27:42.258Z,1.91
2023-01-26T11:30:33.337Z,1.80
2023-01-26T11:33:08.211Z,1.77
2023-01-26T11:35:47.643Z,1.77
2023-01-26T11:38:28.135Z,1.74
2023-01-26T11:41:09.085Z,1.46
2023-01-26T11:44:13.111Z,1.68
2023-01-26T11:46:59.571Z,1.56
2023-01-26T11:49:47.361Z,1.53
2023-01-26T11:52:30.100Z,1.58
2023-01-26T11:55:17.941Z,1.78
2023-01-26T11:57:59.401Z,1.96
2023-01-26T12:00:36.440Z,1.66
2023-01-26T12:03:06.492Z,1.69
2023-01-26T12:05:44.534Z,1.83
2023-01-26T12:08:19.383Z,1.75
2023-01-26T12:10:52.121Z,1.75
2023-01-26T12:13:29.145Z,1.74
2023-01-26T12:16:04.588Z,1.82
2023-01-26T12:18:50.799Z,1.71
2023-01-26T12:21:25.317Z,1.82
2023-01-26T12:23:59.879Z,1.89
2023-01-26T12:26:33.202Z,1.89
2023-01-26T12:29:09.665Z,1.87
2023-01-26T12:31:44.520Z,1.64
2023-01-26T12:34:14.347Z,1.52
2023-01-26T12:36:53.805Z,1.49
2023-01-26T12:39:29.166Z,1.66
2023-01-26T12:42:17.430Z,1.78
2023-01-26T12:44:48.777Z,1.80
2023-01-26T12:47:22.236Z,1.84
2023-01-26T12:49:58.233Z,1.80
2023-01-26T12:52:33.212Z,1.65
2023-01-26T12:55:08.574Z,1.54
2023-01-26T12:57:42.463Z,1.67
2023-01-26T13:00:22.393Z,1.64
2023-01-26T13:02:54.159Z,1.32
2023-01-26T13:05:31.945Z,1.44
2023-01-26T13:08:39.131Z,1.39
2023-01-26T13:11:09.169Z,1.48
2023-01-26T13:13:54.326Z,1.56
2023-01-26T13:16:35.526Z,1.19
2023-01-26T13:19:04.565Z,1.00
2023-01-26T13:21:44.770Z,1.17
2023-01-26T13:24:44.385Z,1.00
2023-01-26T13:27:31.379Z,0.96
2023-01-26T13:29:59.680Z,1.02
2023-01-26T13:33:06.204Z,0.99
2023-01-26T13:35:36.568Z,0.85
2023-01-26T13:38:14.945Z,1.04
2023-01-26T13:40:48.073Z,1.08
2023-01-26T13:43:27.115Z,0.99
2023-01-26T13:46:07.881Z,1.08
2023-01-26T13:48:44.062Z,1.05
2023-01-26T13:51:16.570Z,0.98
2023-01-26T13:53:49.135Z,1.26
2023-01-26T13:56:37.263Z,1.17
2023-01-26T13:59:07.427Z,1.02
2023-01-26T14:01:35.402Z,0.86
2023-01-26T14:04:05.665Z,1.14
2023-01-26T14:06:34.752Z,1.25
2023-01-26T14:09:06.552Z,1.16
2023-01-26T14:11:36.031Z,1.17
2023-01-26T14:14:04.252Z,1.35
2023-01-26T14:16:33.409Z,1.23
2023-01-26T14:19:13.839Z,1.27
2023-01-26T14:21:50.706Z,1.15
2023-01-26T14:24:21.096Z,1.22
2023-01-26T14:26:50.292Z,1.10
2023-01-26T14:29:23.447Z,1.09
2023-01-26T14:31:53.513Z,1.28
2023-01-26T14:34:23.403Z,1.33
2023-01-26T14:37:07.160Z,1.31
2023-01-26T14:39:35.215Z,1.06
2023-01-26T14:42:05.080Z,1.25
2023-01-26T14:44:32.890Z,1.26
2023-01-26T14:47:05.697Z,0.92
2023-01-26T14:49:43.824Z,0.97
2023-01-26T14:52:25.250Z,0.80
2023-01-26T14:54:54.458Z,1.01
2023-01-26T14:57:27.800Z,1.00
2023-01-26T14:59:57.436Z,1.08
2023-01-26T15:02:26.986Z,0.94
2023-01-26T15:05:00.736Z,1.19
2023-01-26T15:07:46.813Z,1.20
2023-01-26T15:10:33.577Z,1.02
2023-01-26T15:13:07.698Z,1.20
2023-01-26T15:15:38.157Z,1.09
2023-01-26T15:18:17.788Z,1.00
2023-01-26T15:20:50.560Z,1.00
2023-01-26T15:23:24.185Z,0.95
2023-01-26T15:25:52.327Z,1.08
2023-01-26T15:28:25.828Z,1.18
2023-01-26T15:30:56.701Z,1.10
2023-01-26T15:33:45.401Z,1.07
2023-01-26T15:36:32.457Z,1.11
2023-01-26T15:39:11.373Z,1.01
2023-01-26T15:41:39.130Z,1.14
2023-01-26T15:44:14.745Z,1.14
2023-01-26T15:46:42.674Z,1.13
2023-01-26T15:49:10.432Z,1.11
2023-01-26T15:51:38.883Z,1.09
2023-01-26T15:54:07.497Z,1.08
2023-01-26T15:56:35.582Z,1.14
2023-01-26T15:59:03.390Z,1.02
2023-01-26T16:01:32.671Z,0.98
2023-01-26T16:04:00.413Z,0.86
2023-01-26T16:06:30.337Z,0.89
2023-01-26T16:08:58.568Z,0.98
2023-01-26T16:11:30.349Z,1.01
2023-01-26T16:14:03.584Z,1.05
2023-01-26T16:16:33.850Z,1.05
2023-01-26T16:19:01.792Z,0.97
2023-01-26T16:21:33.185Z,0.99
2023-01-26T16:24:01.303Z,0.94
2023-01-26T16:26:29.830Z,0.90
2023-01-26T16:28:58.195Z,0.91
2023-01-26T16:31:28.037Z,0.75
2023-01-26T16:33:57.957Z,0.92
2023-01-26T16:36:25.891Z,0.85
2023-01-26T16:38:53.691Z,0.94
2023-01-26T16:41:25.781Z,0.99
2023-01-26T16:43:56.511Z,0.93
2023-01-26T16:46:24.800Z,0.81
2023-01-26T16:48:52.723Z,0.77
2023-01-26T16:51:26.400Z,0.86
2023-01-26T16:53:55.410Z,0.86
2023-01-26T16:56:24.735Z,0.98
2023-01-26T16:58:52.726Z,1.00
2023-01-26T17:01:23.299Z,1.07
2023-01-26T17:03:51.797Z,1.07
2023-01-26T17:06:20.860Z,0.97
2023-01-26T17:08:50.707Z,1.11
2023-01-26T17:11:20.598Z,1.05
2023-01-26T17:13:48.638Z,1.02
2023-01-26T17:16:18.953Z,1.09
2023-01-26T17:18:47.502Z,1.02
2023-01-26T17:21:17.183Z,1.05
2023-01-26T17:23:45.441Z,0.98
2023-01-26T17:26:17.100Z,1.06
2023-01-26T17:28:45.347Z,0.87
2023-01-26T17:31:17.465Z,1.03
2023-01-26T17:33:45.631Z,0.94
2023-01-26T17:36:14.456Z,0.84
2023-01-26T17:38:42.534Z,0.95
2023-01-26T17:41:10.318Z,0.83
2023-01-26T17:43:39.978Z,0.81
2023-01-26T17:46:09.477Z,0.92
2023-01-26T17:48:38.460Z,0.95
2023-01-26T17:51:07.660Z,0.90
2023-01-26T17:53:39.180Z,0.99
2023-01-26T17:56:08.579Z,0.94
2023-01-26T17:58:37.001Z,0.97
2023-01-26T18:01:07.637Z,0.93
2023-01-26T18:03:35.578Z,0.80
2023-01-26T18:06:03.648Z,0.82
2023-01-26T18:08:31.652Z,0.79
2023-01-26T18:11:00.172Z,0.86
2023-01-26T18:13:28.443Z,0.78
2023-01-26T18:15:56.162Z,0.84
2023-01-26T18:18:26.039Z,0.86
2023-01-26T18:20:53.871Z,0.82
2023-01-26T18:23:23.748Z,0.83
2023-01-26T18:25:56.003Z,0.80
2023-01-26T18:28:23.886Z,0.72
2023-01-26T18:30:51.749Z,0.87
2023-01-26T18:33:19.549Z,0.77
2023-01-26T18:35:48.725Z,0.92
2023-01-26T18:38:16.566Z,0.76
2023-01-26T18:40:44.356Z,0.85
2023-01-26T18:43:12.160Z,0.71
2023-01-26T18:45:42.750Z,0.75
2023-01-26T18:48:10.526Z,0.77
2023-01-26T18:50:39.495Z,0.74
2023-01-26T18:53:08.622Z,0.85
2023-01-26T18:55:36.665Z,0.78
2023-01-26T18:58:04.383Z,0.89
2023-01-26T19:00:32.164Z,0.82
2023-01-26T19:02:59.911Z,0.90
2023-01-26T19:05:27.944Z,0.82
2023-01-26T19:07:55.661Z,0.82
2023-01-26T19:10:24.792Z,0.70
2023-01-26T19:12:52.596Z,0.70
2023-01-26T19:15:20.363Z,0.86
2023-01-26T19:17:48.115Z,0.90
2023-01-26T19:20:16.198Z,0.90
2023-01-26T19:22:43.989Z,0.95
2023-01-26T19:25:12.132Z,0.93
2023-01-26T19:27:41.471Z,0.92
2023-01-26T19:30:10.711Z,0.87
2023-01-26T19:32:38.431Z,0.94
2023-01-26T19:35:08.962Z,0.96
2023-01-26T19:37:36.784Z,0.87
2023-01-26T19:40:04.953Z,0.82
2023-01-26T19:42:32.694Z,0.99
2023-01-26T19:45:01.779Z,0.91
2023-01-26T19:47:29.545Z,1.02
2023-01-26T19:49:57.654Z,0.96
2023-01-26T19:52:25.438Z,0.80
2023-01-26T19:54:53.206Z,0.71
2023-01-26T19:57:20.972Z,0.80
2023-01-26T19:59:48.964Z,0.88
2023-01-26T20:02:18.094Z,0.91
2023-01-26T20:04:46.205Z,0.94
2023-01-26T20:07:13.970Z,0.86
2023-01-26T20:09:41.789Z,0.87
2023-01-26T20:12:11.188Z,0.95
2023-01-26T20:14:39.049Z,0.76
2023-01-26T20:17:06.857Z,0.85
2023-01-26T20:19:36.039Z,0.72
2023-01-26T20:22:04.328Z,0.84
2023-01-26T20:24:33.324Z,0.85
2023-01-26T20:27:01.096Z,0.93
2023-01-26T20:29:28.920Z,0.97
2023-01-26T20:31:56.791Z,0.91
2023-01-26T20:34:25.508Z,0.96
2023-01-26T20:37:00.032Z,0.97
2023-01-26T20:39:28.823Z,0.83
2023-01-26T20:41:56.569Z,0.82
2023-01-26T20:44:24.602Z,0.90
2023-01-26T20:46:52.451Z,0.75
2023-01-26T20:49:20.393Z,0.85
2023-01-26T20:51:48.687Z,1.05
2023-01-26T20:54:18.566Z,0.99
2023-01-26T20:56:46.763Z,0.98
2023-01-26T20:59:14.604Z,0.96
2023-01-26T21:01:42.608Z,0.85
2023-01-26T21:04:10.348Z,0.77
2023-01-26T21:06:38.992Z,0.73
2023-01-26T21:09:06.805Z,0.90
2023-01-26T21:11:36.587Z,0.94
2023-01-26T21:14:05.129Z,0.94
2023-01-26T21:16:35.584Z,0.98
2023-01-26T21:19:03.460Z,0.79
2023-01-26T21:21:31.327Z,0.86
2023-01-26T21:23:59.301Z,0.79
2023-01-26T21:26:28.650Z,0.88
2023-01-26T21:28:59.739Z,0.95
2023-01-26T21:31:30.040Z,0.93
2023-01-26T21:33:58.333Z,0.89
2023-01-26T21:36:28.198Z,0.93
2023-01-26T21:38:58.751Z,0.91
2023-01-26T21:41:46.121Z,0.97
2023-01-26T21:44:17.874Z,0.98
2023-01-26T21:46:46.926Z,0.93
2023-01-26T21:49:15.532Z,0.89
2023-01-26T21:52:01.297Z,0.91
2023-01-26T21:54:34.742Z,0.79
2023-01-26T21:57:03.979Z,0.87
2023-01-26T21:59:32.080Z,0.89
2023-01-26T22:01:59.977Z,0.88
2023-01-26T22:04:29.782Z,0.85
2023-01-26T22:06:59.733Z,0.80
2023-01-26T22:09:27.623Z,0.78
2023-01-26T22:11:55.605Z,0.89
2023-01-26T22:14:25.275Z,0.96
2023-01-26T22:16:55.125Z,0.85
2023-01-26T22:19:22.881Z,0.76
2023-01-26T22:21:50.613Z,0.74
2023-01-26T22:24:18.940Z,0.78
2023-01-26T22:26:47.510Z,0.87
2023-01-26T22:29:15.272Z,0.67
2023-01-26T22:31:43.173Z,0.80
2023-01-26T22:34:12.487Z,0.65
2023-01-26T22:36:41.003Z,0.73
2023-01-26T22:39:09.217Z,0.80
2023-01-26T22:41:37.845Z,0.75
2023-01-26T22:44:05.789Z,0.77
2023-01-26T22:46:34.070Z,0.81
2023-01-26T22:49:02.367Z,0.83
2023-01-26T22:51:33.370Z,0.77
2023-01-26T22:54:01.221Z,0.80
2023-01-26T22:56:28.974Z,0.75
2023-01-26T22:59:00.087Z,0.74
2023-01-26T23:01:30.155Z,0.75
2023-01-26T23:03:59.177Z,0.81
2023-01-26T23:06:27.307Z,0.73
2023-01-26T23:08:58.303Z,0.88
2023-01-26T23:11:27.563Z,0.76
2023-01-26T23:13:57.202Z,0.82
2023-01-26T23:16:26.074Z,0.76
2023-01-26T23:18:54.794Z,0.73
2023-01-26T23:21:23.275Z,0.74
2023-01-26T23:23:51.309Z,0.86
2023-01-26T23:26:21.121Z,0.69
2023-01-26T23:28:48.916Z,0.72
2023-01-26T23:31:18.485Z,0.87
2023-01-26T23:33:46.406Z,0.70
2023-01-26T23:36:15.549Z,0.71
2023-01-26T23:38:44.481Z,0.70
2023-01-26T23:41:12.940Z,0.72
2023-01-26T23:43:42.085Z,0.82
2023-01-26T23:46:11.163Z,0.89
2023-01-26T23:48:39.430Z,0.98
2023-01-26T23:51:09.414Z,1.09
2023-01-26T23:53:37.641Z,1.07
2023-01-26T23:56:08.192Z,0.89
2023-01-26T23:58:37.127Z,1.08
